Latest Weather Observations for Coldstream

IDV60801

Issued at 8:02 am EST Saturday 24 August 2019 (issued every 10 minutes, with the page automatically refreshed every 10 minutes)

About weather observations | Map of weather stations | Latest weather observations for VIC | Other Formats
Station Details ID: 086383 Name: COLDSTREAM Lat: -37.72 Lon: 145.41 Height: 83.0 m
Data from the previous 72 hours. | See also: Recent months at Coldstream
Date/Time
EST
Temp
°C
App
Temp
°C
Dew
Point
°C
Rel
Hum
%
Delta-T
°C
Wind Press
QNH
hPa
Press
MSL
hPa
Rain since
9am
mm
Dir  Spd
km/h
Gust
km/h
Spd
kts
Gust
kts
24/08:00am 9.8 6.6 2.9 62 3.0 NNW 9 17 5 9 1017.5 1017.6 0.2
24/07:30am 7.8 4.5 2.7 70 2.1 NNW 9 15 5 8 1017.6 1017.7 0.2
24/07:00am 7.8 3.7 2.3 68 2.3 N 13 20 7 11 1017.6 1017.7 0.2
24/06:30am 8.3 3.8 2.3 66 2.5 N 15 20 8 11 1017.7 1017.8 0.2
24/06:00am 7.9 4.5 2.0 66 2.4 NNW 9 15 5 8 1018.0 1018.1 0.2
24/05:30am 8.0 4.6 2.0 66 2.5 NNW 9 13 5 7 1017.9 1018.0 0.2
24/05:00am 7.4 4.3 1.5 66 2.4 NW 7 9 4 5 1017.5 1017.6 0.2
24/04:30am 8.7 4.6 2.1 63 2.8 NNE 13 20 7 11 1017.3 1017.4 0.2
24/04:00am 9.3 5.1 1.9 60 3.1 NNE 13 20 7 11 1017.6 1017.7 0.2
24/03:30am 9.5 5.4 2.1 60 3.1 N 13 24 7 13 1018.1 1018.2 0.2
24/03:00am 9.4 5.2 1.8 59 3.2 NNW 13 20 7 11 1018.5 1018.6 0.2
24/02:30am 9.4 5.6 1.8 59 3.2 NNW 11 17 6 9 1018.7 1018.8 0.2
24/02:00am 9.9 5.8 2.3 59 3.2 NNW 13 22 7 12 1018.7 1018.8 0.2
24/01:30am 10.1 6.4 2.5 59 3.3 NNW 11 20 6 11 1019.0 1019.1 0.2
24/01:00am 9.5 6.3 2.8 63 2.9 NNW 9 15 5 8 1019.2 1019.3 0.2
24/12:30am 9.6 6.0 3.1 64 2.8 NNW 11 22 6 12 1019.5 1019.6 0.2
24/12:00am 9.0 5.9 3.4 68 2.4 NNW 9 19 5 10 1019.5 1019.6 0.2
 
Date/Time
EST
Temp
°C
App
Temp
°C
Dew
Point
°C
Rel
Hum
%
Delta-T
°C
Wind Press
QNH
hPa
Press
MSL
hPa
Rain since
9am
mm
Dir  Spd
km/h
Gust
km/h
Spd
kts
Gust
kts
23/11:30pm 9.9 6.0 3.4 64 2.8 N 13 24 7 13 1019.5 1019.6 0.2
23/11:00pm 8.7 5.5 3.3 69 2.3 NNW 9 15 5 8 1020.0 1020.1 0.2
23/10:30pm 8.3 5.2 3.6 72 2.0 NNW 9 13 5 7 1020.2 1020.3 0.2
23/10:00pm 9.8 6.0 3.8 66 2.6 NW 13 22 7 12 1020.6 1020.7 0.2
23/09:30pm 8.5 5.7 3.1 69 2.3 NNW 7 13 4 7 1020.7 1020.8 0.2
23/09:00pm 9.7 7.0 2.8 62 3.0 N 6 13 3 7 1020.8 1020.9 0.2
23/08:30pm 10.8 6.5 3.1 59 3.4 N 15 26 8 14 1020.9 1021.0 0.2
23/08:00pm 11.2 6.0 3.3 58 3.5 N 20 35 11 19 1021.0 1021.1 0.2
23/07:30pm 11.2 6.6 3.5 59 3.4 N 17 26 9 14 1021.1 1021.2 0.2
23/07:00pm 10.7 6.9 4.0 63 3.0 N 13 24 7 13 1021.1 1021.2 0.2
23/06:30pm 11.4 6.5 4.2 61 3.2 N 19 33 10 18 1021.0 1021.1 0.2
23/06:00pm 11.2 7.4 4.0 61 3.2 NNW 13 26 7 14 1021.3 1021.4 0.2
23/05:30pm 12.5 7.3 3.7 55 4.0 NNW 20 33 11 18 1020.7 1020.8 0.2
23/05:00pm 13.1 8.0 4.3 55 4.0 NNW 20 32 11 17 1020.4 1020.5 0.2
23/04:30pm 13.6 8.5 4.2 53 4.3 NNW 20 28 11 15 1020.4 1020.5 0.2
23/04:00pm 14.1 8.9 3.3 48 4.9 NNW 20 33 11 18 1020.3 1020.4 0.2
23/03:30pm 14.3 8.9 4.3 51 4.6 NNW 22 37 12 20 1020.6 1020.7 0.2
23/03:00pm 14.2 8.4 4.5 52 4.5 NNW 24 39 13 21 1020.9 1021.0 0.2
23/02:30pm 14.1 8.3 4.4 52 4.5 NNW 24 39 13 21 1021.4 1021.6 0.2
23/02:00pm 13.7 7.8 4.0 52 4.4 NNW 24 37 13 20 1021.7 1021.9 0.2
23/01:30pm 13.3 7.4 3.7 52 4.3 NNW 24 39 13 21 1022.0 1022.2 0.0
23/01:00pm 12.9 6.8 3.0 51 4.4 NNW 24 37 13 20 1022.7 1022.9 0.0
23/12:30pm 12.5 6.8 2.9 52 4.2 NNW 22 35 12 19 1023.3 1023.5 0.0
23/12:00pm 12.1 6.5 3.6 56 3.8 NNW 22 33 12 18 1023.8 1024.0 0.0
23/11:30am 12.1 8.3 4.1 58 3.6 NNW 13 30 7 16 1024.4 1024.6 0.0
23/11:00am 10.8 8.6 6.0 72 2.2 NNW 7 11 4 6 1025.1 1025.3 0.0
23/10:30am 9.4 7.5 4.8 73 2.1 NNW 4 9 2 5 1025.5 1025.7 0.0
23/10:00am 8.0 5.6 4.2 77 1.6 N 6 9 3 5 1025.8 1026.0 0.0
23/09:30am 6.6 5.1 5.1 90 0.7 NNE 2 7 1 4 1026.0 1026.2 0.0
23/09:00am 5.1 4.0 5.1 100 0.0 CALM 0 0 0 0 1026.0 1026.2 0.0
23/08:30am 3.3 1.9 3.3 100 0.0 CALM 0 0 0 0 1026.2 1026.4 0.0
23/08:00am 0.9 -1.0 0.8 99 0.0 CALM 0 0 0 0 1026.2 1026.4 0.0
23/07:30am -0.5 -2.6 -0.6 99 0.0 CALM 0 0 0 0 1026.2 1026.4 0.0
23/07:00am -1.1 -3.3 -1.2 99 0.0 CALM 0 0 0 0 1026.0 1026.2 0.0
23/06:30am -0.9 -3.0 -1.0 99 0.0 CALM 0 0 0 0 1025.7 1025.9 0.0
23/06:00am -0.9 -3.0 -1.0 99 0.0 CALM 0 0 0 0 1025.7 1025.9 0.0
23/05:30am -0.7 -2.8 -0.8 99 0.0 CALM 0 0 0 0 1025.5 1025.7 0.0
23/05:00am -0.2 -2.2 -0.3 99 0.0 CALM 0 0 0 0 1025.3 1025.5 0.0
23/04:30am 0.0 -2.0 -0.1 99 0.0 CALM 0 0 0 0 1025.3 1025.5 0.0
23/04:00am 0.2 -1.8 0.1 99 0.0 CALM 0 0 0 0 1025.4 1025.6 0.0
23/03:30am 0.4 -1.9 0.3 99 0.0 SSW 2 6 1 3 1025.5 1025.7 0.0
23/03:00am 0.7 -1.2 0.6 99 0.0 CALM 0 6 0 3 1025.6 1025.8 0.0
23/02:30am 1.8 0.1 1.7 99 0.0 CALM 0 0 0 0 1025.9 1026.1 0.0
23/02:00am 2.2 0.2 2.1 99 0.0 SW 2 7 1 4 1026.2 1026.4 0.0
23/01:30am 3.0 1.5 2.9 99 0.0 CALM 0 0 0 0 1026.4 1026.6 0.0
23/01:00am 3.0 0.7 2.9 99 0.0 S 4 7 2 4 1026.4 1026.6 0.0
23/12:30am 3.4 2.0 3.3 99 0.0 CALM 0 2 0 1 1026.6 1026.7 0.0
23/12:00am 4.4 2.8 4.3 99 0.0 SSE 2 7 1 4 1026.6 1026.7 0.0
 
Date/Time
EST
Temp
°C
App
Temp
°C
Dew
Point
°C
Rel
Hum
%
Delta-T
°C
Wind Press
QNH
hPa
Press
MSL
hPa
Rain since
9am
mm
Dir  Spd
km/h
Gust
km/h
Spd
kts
Gust
kts
22/11:30pm 4.7 3.5 4.6 99 0.0 CALM 0 0 0 0 1026.7 1026.8 0.0
22/11:00pm 4.3 3.0 4.2 99 0.0 CALM 0 9 0 5 1026.8 1026.9 0.0
22/10:30pm 4.0 2.7 3.9 99 0.0 CALM 0 0 0 0 1026.9 1027.0 0.0
22/10:00pm 3.9 2.5 3.8 99 0.0 CALM 0 0 0 0 1027.0 1027.1 0.0
22/09:30pm 3.2 1.7 3.1 99 0.0 CALM 0 0 0 0 1026.9 1027.0 0.0
22/09:00pm 3.4 2.0 3.3 99 0.0 CALM 0 0 0 0 1026.9 1027.0 0.0
22/08:30pm 3.7 1.9 3.3 97 0.2 SSW 2 6 1 3 1026.7 1026.8 0.0
22/08:00pm 4.5 1.8 3.8 95 0.3 S 7 9 4 5 1026.4 1026.6 0.0
22/07:30pm 5.6 4.2 3.8 88 0.8 CALM 0 0 0 0 1026.2 1026.4 0.0
22/07:00pm 7.2 5.3 3.1 75 1.7 S 2 6 1 3 1026.1 1026.3 0.0
22/06:30pm 8.9 6.3 3.3 68 2.4 SSW 6 9 3 5 1025.7 1025.9 0.0
22/06:00pm 10.1 7.1 4.0 66 2.7 S 9 13 5 7 1025.5 1025.7 0.0
22/05:30pm 10.4 6.6 3.9 64 2.9 SSW 13 24 7 13 1025.1 1025.3 0.0
22/05:00pm 10.8 7.4 4.0 63 3.0 SSW 11 20 6 11 1024.7 1024.9 0.0
22/04:30pm 10.9 8.0 4.4 64 2.9 SSW 9 15 5 8 1024.7 1024.9 0.0
22/04:00pm 11.0 7.6 4.0 62 3.1 S 11 19 6 10 1024.2 1024.4 0.0
22/03:30pm 11.2 7.7 3.7 60 3.3 SSE 11 17 6 9 1023.8 1024.0 0.0
22/03:00pm 11.3 7.4 3.3 58 3.5 SSE 13 28 7 15 1023.7 1023.9 0.0
22/02:30pm 11.3 6.2 3.1 57 3.6 SSE 19 28 10 15 1023.6 1023.8 0.0
22/02:00pm 11.4 6.8 3.9 60 3.3 S 17 30 9 16 1023.6 1023.8 0.0
22/01:30pm 11.3 8.0 6.2 71 2.4 S 13 20 7 11 1023.3 1023.5 0.0
22/01:00pm 11.5 7.7 5.8 68 2.6 SSW 15 22 8 12 1023.6 1023.8 0.0
22/12:30pm 11.0 6.8 5.5 69 2.5 SSW 17 37 9 20 1023.5 1023.7 0.0
22/12:00pm 11.3 6.9 5.0 65 2.9 S 17 26 9 14 1023.5 1023.7 0.0
22/11:30am 10.2 4.8 4.6 68 2.5 SSW 22 39 12 21 1023.5 1023.7 0.0
22/11:00am 11.3 7.7 5.0 65 2.9 S 13 22 7 12 1023.4 1023.6 0.0
22/10:30am 11.8 7.7 6.3 69 2.6 S 17 30 9 16 1023.1 1023.3 0.0
22/10:00am 11.1 6.5 5.8 70 2.5 S 19 33 10 18 1022.7 1022.9 0.0
22/09:30am 11.4 8.0 5.9 69 2.6 SSW 13 26 7 14 1022.3 1022.5 0.0
22/09:00am 10.7 8.0 5.7 71 2.3 S 9 17 5 9 1022.2 1022.4 10.0
22/08:30am 9.7 7.5 5.3 74 2.0 S 6 13 3 7 1022.0 1022.2 10.0
22/08:00am 9.0 6.6 5.4 78 1.6 S 7 13 4 7 1021.8 1022.0 10.0
22/07:30am 8.5 7.0 8.4 99 0.0 SE 6 9 3 5 1021.3 1021.4 10.0
22/07:00am 8.8 8.1 8.7 99 0.0 W 2 7 1 4 1020.7 1020.8 10.0
22/06:30am 9.0 7.6 8.9 99 0.0 SW 6 11 3 6 1020.4 1020.5 10.0
22/06:00am 9.1 6.4 9.0 99 0.0 S 13 35 7 19 1019.8 1019.9 10.0
22/05:30am 9.3 6.6 9.0 98 0.1 SW 13 26 7 14 1019.5 1019.6 7.6
22/05:00am 9.7 7.6 8.1 90 0.8 SW 9 20 5 11 1019.1 1019.2 7.2
22/04:30am 10.3 6.9 7.5 83 1.3 SW 15 24 8 13 1018.7 1018.8 6.8
22/04:00am 10.6 6.5 7.7 82 1.4 SW 19 28 10 15 1018.4 1018.5 6.8
22/03:30am 10.6 6.0 8.2 85 1.2 SW 22 41 12 22 1018.2 1018.3 6.8
22/03:00am 10.5 7.4 10.2 98 0.2 SW 17 24 9 13 1017.8 1017.9 6.8
22/02:30am 10.5 5.7 10.3 99 0.1 WSW 26 37 14 20 1017.9 1018.0 6.8
22/02:01am 10.4 5.6 10.2 99 0.1 WSW 26 52 14 28 1017.9 1018.0 6.8
22/02:00am 10.4 5.9 10.2 99 0.1 WSW 24 52 13 28 1017.9 1018.0 6.8
22/01:30am 11.1 6.5 10.9 99 0.1 W 26 37 14 20 1017.6 1017.7 3.0
22/01:00am 11.0 7.5 10.8 99 0.1 WSW 20 33 11 18 1017.6 1017.7 3.0
22/12:30am 11.1 7.1 10.5 96 0.3 WSW 22 33 12 18 1017.2 1017.3 1.2
22/12:00am 11.7 7.8 9.3 85 1.2 W 20 32 11 17 1016.9 1017.0 0.2
 
Date/Time
EST
Temp
°C
App
Temp
°C
Dew
Point
°C
Rel
Hum
%
Delta-T
°C
Wind Press
QNH
hPa
Press
MSL
hPa
Rain since
9am
mm
Dir  Spd
km/h
Gust
km/h
Spd
kts
Gust
kts
21/11:30pm 11.8 8.3 8.8 82 1.5 WNW 17 28 9 15 1017.1 1017.2 0.2
21/11:00pm 11.5 7.7 8.9 84 1.3 WNW 19 28 10 15 1017.0 1017.1 0.2
21/10:30pm 11.3 6.5 9.0 86 1.1 W 24 43 13 23 1017.4 1017.5 0.2
21/10:00pm 12.7 8.3 7.4 70 2.6 WNW 20 32 11 17 1017.3 1017.4 0.0
21/09:30pm 12.7 7.6 7.8 72 2.4 W 24 35 13 19 1017.5 1017.6 0.0
21/09:00pm 12.3 7.7 8.2 76 2.0 W 22 33 12 18 1017.7 1017.8 0.0
21/08:30pm 12.8 8.1 7.7 71 2.5 WNW 22 41 12 22 1018.0 1018.1 0.0
21/08:00pm 13.0 7.7 7.0 67 2.9 W 24 41 13 22 1018.3 1018.4 0.0
21/07:30pm 12.5 9.6 6.5 67 2.9 WNW 11 17 6 9 1018.0 1018.1 0.0
21/07:00pm 12.6 7.9 6.2 65 3.0 W 20 32 11 17 1018.3 1018.4 0.0
21/06:30pm 12.8 8.7 6.2 64 3.1 W 17 30 9 16 1018.4 1018.5 0.0
21/06:00pm 13.0 7.6 6.4 64 3.2 W 24 33 13 18 1018.3 1018.4 0.0
21/05:30pm 13.1 6.0 6.2 63 3.3 W 33 48 18 26 1018.0 1018.1 0.0
21/05:27pm 13.3 6.7 5.9 61 3.5 W 30 48 16 26 1018.0 1018.1 0.0
21/05:00pm 13.4 9.4 6.5 63 3.3 W 17 26 9 14 1018.0 1018.1 0.0
21/04:30pm 13.6 8.6 6.5 62 3.4 WSW 22 32 12 17 1018.3 1018.4 0.0
21/04:00pm 14.0 8.1 5.9 58 3.9 WSW 26 35 14 19 1018.3 1018.4 0.0
21/03:30pm 14.5 8.5 7.1 61 3.6 W 28 39 15 21 1018.0 1018.1 0.0
21/03:00pm 14.6 9.5 5.9 56 4.2 W 22 32 12 17 1018.4 1018.5 0.0
21/02:30pm 15.2 8.5 5.7 53 4.6 W 30 44 16 24 1018.2 1018.3 0.0
21/02:00pm 15.1 10.4 7.9 62 3.6 WSW 22 35 12 19 1018.5 1018.6 0.0
21/01:30pm 14.6 8.4 6.2 57 4.1 WSW 28 39 15 21 1018.7 1018.8 0.0
21/01:00pm 15.0 9.2 7.8 62 3.6 WSW 28 41 15 22 1019.1 1019.2 0.0
21/12:30pm 14.1 8.4 6.5 60 3.7 WSW 26 43 14 23 1019.6 1019.7 0.0
21/12:00pm 14.9 9.2 8.2 64 3.4 WSW 28 46 15 25 1019.7 1019.8 0.0
21/11:59am 15.0 9.3 8.3 64 3.4 WSW 28 46 15 25 1019.7 1019.8 0.0
21/11:30am 14.0 8.6 7.8 66 3.1 SW 26 39 14 21 1019.9 1020.0 0.0
21/11:20am 13.7 7.0 8.1 69 2.8 WSW 33 52 18 28 1020.1 1020.2 0.0
21/11:00am 13.8 8.7 9.3 74 2.3 WSW 26 37 14 20 1020.0 1020.1 0.0
21/10:30am 12.9 7.9 8.2 73 2.3 WSW 24 43 13 23 1019.9 1020.0 0.0
21/10:00am 12.7 7.9 9.0 78 1.9 WSW 24 33 13 18 1020.0 1020.1 0.0
21/09:30am 12.1 8.5 9.8 86 1.2 W 19 33 10 18 1020.0 1020.1 0.0
21/09:00am 11.7 8.5 10.1 90 0.8 W 17 28 9 15 1019.9 1020.0 3.4
21/08:30am 11.6 7.8 9.9 89 0.9 W 20 33 11 18 1019.7 1019.8 3.4

Other formats

Comma delimited format used in spreadsheet applications
http://www.bom.gov.au/fwo/IDV60801/IDV60801.94864.axf

JavaScript Object Notation format (JSON) in row-major order
http://www.bom.gov.au/fwo/IDV60801/IDV60801.94864.json

Data quality

Most of these data are generated automatically and are frequently updated. Quality checks on data are not normally performed. It is possible for incorrect values to appear. Refer to information at About Latest Weather Observations and please check the disclaimer before using these data.